Terminal Aerodrome Forecast
Issued by NWS

Home | Current Version | Previous Version | Text Only | Print | Product List | Glossary On
Versions: 1 2 3 4 5 6 7 8 9 10 11 12 13 14 15 16 17 18 19 20 21 22 23 24 25
402
FTUS44 KSJT 022322
TAFJCT
TAF
KJCT 022322Z 0300/0324 07010KT 3SM -RA BR OVC005
     FM030700 05011KT 4SM -RA BR OVC006
     FM031200 05008KT 2SM BR OVC004=

USA.gov is the U.S. government's official web portal to all federal, state and local government web resources and services.